createdAt,value
2023-04-15T00:00:08.706Z,7086.00
2023-04-15T00:01:08.675Z,7121.00
2023-04-15T00:02:08.733Z,7105.00
2023-04-15T00:03:08.874Z,7147.00
2023-04-15T00:04:08.687Z,7093.00
2023-04-15T00:05:08.661Z,6990.00
2023-04-15T00:06:08.659Z,6930.00
2023-04-15T00:07:08.648Z,6905.00
2023-04-15T00:08:08.612Z,7045.00
2023-04-15T00:09:08.647Z,7025.00
2023-04-15T00:10:08.649Z,6955.00
2023-04-15T00:11:08.635Z,6744.00
2023-04-15T00:12:08.676Z,6708.00
2023-04-15T00:13:08.691Z,6767.00
2023-04-15T00:14:08.723Z,6751.00
2023-04-15T00:15:08.741Z,6825.00
2023-04-15T00:16:09.515Z,6932.00
2023-04-15T00:17:08.885Z,6992.00
2023-04-15T00:18:08.955Z,7048.00
2023-04-15T00:19:08.933Z,7010.00
2023-04-15T00:20:09.009Z,6984.00
2023-04-15T00:21:09.043Z,6807.00
2023-04-15T00:22:09.057Z,6615.00
2023-04-15T00:23:09.147Z,6154.00
2023-04-15T00:24:09.140Z,5892.00
2023-04-15T00:25:09.144Z,5889.00
2023-04-15T00:26:09.156Z,5583.00
2023-04-15T00:27:09.154Z,5432.00
2023-04-15T00:28:09.195Z,5345.00
2023-04-15T00:29:09.218Z,5441.00
2023-04-15T00:30:09.281Z,5559.00
2023-04-15T00:31:09.374Z,5620.00
2023-04-15T00:32:09.363Z,5705.00
2023-04-15T00:33:09.410Z,5645.00
2023-04-15T00:34:09.462Z,5519.00
2023-04-15T00:35:09.533Z,5594.00
2023-04-15T00:36:09.501Z,5593.00
2023-04-15T00:37:09.521Z,5613.00
2023-04-15T00:38:09.533Z,5617.00
2023-04-15T00:39:09.533Z,5676.00
2023-04-15T00:40:09.554Z,5621.00
2023-04-15T00:41:09.573Z,5732.00
2023-04-15T00:42:09.591Z,5375.00
2023-04-15T00:43:09.520Z,5294.00
2023-04-15T00:44:09.551Z,5244.00
2023-04-15T00:45:09.551Z,5139.00
2023-04-15T00:46:09.628Z,5181.00
2023-04-15T00:47:09.555Z,5074.00
2023-04-15T00:48:09.597Z,5020.00
2023-04-15T00:49:09.569Z,5083.00
2023-04-15T00:50:09.557Z,5292.00
2023-04-15T00:51:09.636Z,5542.00
2023-04-15T00:52:09.599Z,5615.00
2023-04-15T00:53:09.598Z,5561.00
2023-04-15T00:54:09.652Z,5173.00
2023-04-15T00:55:09.664Z,4988.00
2023-04-15T00:56:09.718Z,5014.00
2023-04-15T00:57:09.653Z,5029.00
2023-04-15T00:58:09.682Z,5081.00
2023-04-15T00:59:09.704Z,5188.00
2023-04-15T01:00:09.709Z,5228.00
2023-04-15T01:01:09.744Z,5402.00
2023-04-15T01:02:09.810Z,5567.00
2023-04-15T01:03:09.800Z,5691.00
2023-04-15T01:04:09.798Z,5652.00
2023-04-15T01:05:09.835Z,5647.00
2023-04-15T01:06:09.853Z,5685.00
2023-04-15T01:07:09.877Z,5681.00
2023-04-15T01:08:09.901Z,5770.00
2023-04-15T01:09:09.981Z,5796.00
2023-04-15T01:10:09.993Z,5927.00
2023-04-15T01:11:10.038Z,5956.00
2023-04-15T01:12:10.028Z,5942.00
2023-04-15T01:13:10.046Z,5990.00
2023-04-15T01:14:10.099Z,5929.00
2023-04-15T01:15:10.098Z,6016.00
2023-04-15T01:16:10.145Z,5962.00
2023-04-15T01:17:10.057Z,5981.00
2023-04-15T01:18:10.071Z,6173.00
2023-04-15T01:19:10.098Z,6237.00
2023-04-15T01:20:10.113Z,6326.00
2023-04-15T01:21:10.103Z,6281.00
2023-04-15T01:22:10.135Z,6126.00
2023-04-15T01:23:10.129Z,5941.00
2023-04-15T01:24:10.152Z,5939.00
2023-04-15T01:25:10.118Z,6079.00
2023-04-15T01:26:10.250Z,5964.00
2023-04-15T01:27:10.177Z,5844.00
2023-04-15T01:28:10.187Z,5902.00
2023-04-15T01:29:10.186Z,6112.00
2023-04-15T01:30:10.193Z,6168.00
2023-04-15T01:31:10.323Z,5924.00
2023-04-15T01:32:10.251Z,5688.00
2023-04-15T01:33:10.233Z,5630.00
2023-04-15T01:34:10.335Z,5697.00
2023-04-15T01:35:10.305Z,5815.00
2023-04-15T01:36:10.257Z,5807.00
2023-04-15T01:37:10.352Z,5828.00
2023-04-15T01:38:10.361Z,5857.00
2023-04-15T01:39:10.298Z,5676.00
2023-04-15T01:40:10.381Z,5656.00
2023-04-15T01:41:10.394Z,5672.00
2023-04-15T01:42:10.385Z,5703.00
2023-04-15T01:43:10.392Z,5938.00
2023-04-15T01:44:10.423Z,5971.00
2023-04-15T01:45:10.420Z,6119.00
2023-04-15T01:46:10.470Z,6243.00
2023-04-15T01:47:10.489Z,6221.00
2023-04-15T01:48:10.474Z,6145.00
2023-04-15T01:49:10.486Z,6147.00
2023-04-15T01:50:10.546Z,6180.00
2023-04-15T01:51:10.549Z,6170.00
2023-04-15T01:52:10.546Z,6282.00
2023-04-15T01:53:10.585Z,6192.00
2023-04-15T01:54:10.569Z,6306.00
2023-04-15T01:55:10.576Z,6196.00
2023-04-15T01:56:10.586Z,5951.00
2023-04-15T01:57:10.593Z,5866.00
2023-04-15T01:58:10.608Z,6063.00
2023-04-15T01:59:10.633Z,6261.00
2023-04-15T02:00:10.626Z,6323.00
2023-04-15T02:01:10.683Z,6333.00
2023-04-15T02:02:10.736Z,6165.00
2023-04-15T02:03:10.741Z,5858.00
2023-04-15T02:04:10.858Z,5640.00
2023-04-15T02:05:10.681Z,5660.00
2023-04-15T02:06:10.714Z,5653.00
2023-04-15T02:07:10.762Z,5457.00
2023-04-15T02:08:10.757Z,5470.00
2023-04-15T02:09:10.805Z,5643.00
2023-04-15T02:10:10.819Z,5934.00
2023-04-15T02:11:10.798Z,6155.00
2023-04-15T02:12:10.807Z,6260.00
2023-04-15T02:13:10.827Z,6439.00
2023-04-15T02:14:10.839Z,6459.00
2023-04-15T02:15:11.107Z,6272.00
2023-04-15T02:16:10.863Z,5981.00
2023-04-15T02:17:10.842Z,5820.00
2023-04-15T02:18:10.852Z,5773.00
2023-04-15T02:19:10.868Z,5592.00
2023-04-15T02:20:10.894Z,5466.00
2023-04-15T02:21:10.911Z,5465.00
2023-04-15T02:22:10.948Z,5398.00
2023-04-15T02:23:10.895Z,5506.00
2023-04-15T02:24:10.954Z,5561.00
2023-04-15T02:25:10.930Z,5534.00
2023-04-15T02:26:10.941Z,5544.00
2023-04-15T02:27:10.938Z,5508.00
2023-04-15T02:28:10.941Z,5588.00
2023-04-15T02:29:11.013Z,5823.00
2023-04-15T02:30:11.008Z,5871.00
2023-04-15T02:31:11.028Z,5809.00
2023-04-15T02:32:11.141Z,5803.00
2023-04-15T02:33:10.995Z,5872.00
2023-04-15T02:34:11.009Z,6021.00
2023-04-15T02:35:10.995Z,6012.00
2023-04-15T02:36:11.025Z,6058.00
2023-04-15T02:37:11.062Z,6044.00
2023-04-15T02:38:11.018Z,6115.00
2023-04-15T02:39:11.039Z,6084.00
2023-04-15T02:40:11.048Z,6180.00
2023-04-15T02:41:11.057Z,6321.00
2023-04-15T02:42:11.089Z,6481.00
2023-04-15T02:43:11.098Z,6572.00
2023-04-15T02:44:11.493Z,6688.00
2023-04-15T02:45:11.095Z,6518.00
2023-04-15T02:46:11.172Z,6548.00
2023-04-15T02:47:11.181Z,6514.00
2023-04-15T02:48:11.153Z,6572.00
2023-04-15T02:49:11.184Z,6536.00
2023-04-15T02:50:11.147Z,6513.00
2023-04-15T02:51:11.169Z,6470.00
2023-04-15T02:52:11.133Z,6549.00
2023-04-15T02:53:12.460Z,6754.00
2023-04-15T02:54:11.171Z,6852.00
2023-04-15T02:55:11.193Z,6856.00
2023-04-15T02:56:11.181Z,6791.00
2023-04-15T02:57:11.309Z,6752.00
2023-04-15T02:58:11.204Z,6799.00
2023-04-15T02:59:11.232Z,6937.00
2023-04-15T03:00:11.180Z,6919.00
2023-04-15T03:01:11.284Z,6945.00
2023-04-15T03:02:11.356Z,6972.00
2023-04-15T03:03:11.413Z,7037.00
2023-04-15T03:04:11.425Z,7161.00
2023-04-15T03:05:11.257Z,7310.00
2023-04-15T03:06:11.264Z,7477.00
2023-04-15T03:07:11.216Z,7638.00
2023-04-15T03:08:11.249Z,7797.00
2023-04-15T03:09:11.226Z,7944.00
2023-04-15T03:10:11.273Z,7998.00
2023-04-15T03:11:11.265Z,7858.00
2023-04-15T03:12:11.302Z,7688.00
2023-04-15T03:13:11.320Z,7696.00
2023-04-15T03:14:11.327Z,7445.00
2023-04-15T03:15:11.341Z,7250.00
2023-04-15T03:16:11.483Z,7173.00
2023-04-15T03:17:11.401Z,7184.00
2023-04-15T03:18:11.414Z,7242.00
2023-04-15T03:19:11.441Z,7169.00
2023-04-15T03:20:11.537Z,6920.00
2023-04-15T03:21:11.474Z,6726.00
2023-04-15T03:22:11.481Z,6688.00
2023-04-15T03:23:11.522Z,6643.00
2023-04-15T03:24:11.568Z,6628.00
2023-04-15T03:25:11.571Z,6606.00
2023-04-15T03:26:11.603Z,6526.00
2023-04-15T03:27:11.652Z,6502.00
2023-04-15T03:28:11.683Z,6536.00
2023-04-15T03:29:11.689Z,6650.00
2023-04-15T03:30:11.749Z,6727.00
2023-04-15T03:31:11.798Z,6898.00
2023-04-15T03:32:11.758Z,7042.00
2023-04-15T03:33:11.862Z,7152.00
2023-04-15T03:34:11.836Z,7315.00
2023-04-15T03:35:11.880Z,7478.00
2023-04-15T03:36:11.946Z,7635.00
2023-04-15T03:37:11.977Z,7558.00
2023-04-15T03:38:12.007Z,7449.00
2023-04-15T03:39:12.009Z,7400.00
2023-04-15T03:40:12.022Z,7439.00
2023-04-15T03:41:12.108Z,7443.00
2023-04-15T03:42:12.127Z,7372.00
2023-04-15T03:43:12.110Z,7383.00
2023-04-15T03:44:12.144Z,7512.00
2023-04-15T03:45:12.153Z,7616.00
2023-04-15T03:46:12.271Z,7703.00
2023-04-15T03:47:12.220Z,7871.00
2023-04-15T03:48:17.922Z,7827.00
2023-04-15T03:49:13.262Z,7828.00
2023-04-15T03:50:12.251Z,7752.00
2023-04-15T03:51:12.237Z,7679.00
2023-04-15T03:52:12.233Z,7686.00
2023-04-15T03:53:12.219Z,7562.00
2023-04-15T03:54:12.214Z,7440.00
2023-04-15T03:55:12.225Z,7449.00
2023-04-15T03:56:13.269Z,7447.00
2023-04-15T03:57:12.193Z,7521.00
2023-04-15T03:58:12.138Z,7566.00
2023-04-15T03:59:12.172Z,7650.00
2023-04-15T04:00:12.189Z,7714.00
2023-04-15T04:01:12.208Z,7757.00
2023-04-15T04:02:12.262Z,7776.00
2023-04-15T04:03:12.279Z,7796.00
2023-04-15T04:04:12.315Z,7804.00
2023-04-15T04:05:12.258Z,7800.00
2023-04-15T04:06:12.292Z,7651.00
2023-04-15T04:07:12.342Z,7599.00
2023-04-15T04:08:12.377Z,7612.00
2023-04-15T04:09:12.396Z,7592.00
2023-04-15T04:10:12.502Z,7602.00
2023-04-15T04:11:12.558Z,7654.00
2023-04-15T04:12:12.525Z,7689.00
2023-04-15T04:13:12.597Z,7579.00
2023-04-15T04:14:12.901Z,7514.00
2023-04-15T04:15:12.640Z,7480.00
2023-04-15T04:16:12.807Z,7503.00
2023-04-15T04:17:12.798Z,7518.00
2023-04-15T04:18:12.792Z,7522.00
2023-04-15T04:19:12.813Z,7489.00
2023-04-15T04:20:12.897Z,7476.00
2023-04-15T04:21:12.986Z,7488.00
2023-04-15T04:22:12.930Z,7499.00
2023-04-15T04:23:13.013Z,7489.00
2023-04-15T04:24:12.999Z,7446.00
2023-04-15T04:25:13.028Z,7302.00
2023-04-15T04:26:13.050Z,7117.00
2023-04-15T04:27:13.065Z,6930.00
2023-04-15T04:28:13.072Z,6736.00
2023-04-15T04:29:13.131Z,6492.00
2023-04-15T04:30:13.111Z,6079.00
2023-04-15T04:31:13.178Z,5739.00
2023-04-15T04:32:13.291Z,5627.00
2023-04-15T04:33:13.186Z,5590.00
2023-04-15T04:34:13.217Z,5429.00
2023-04-15T04:35:13.287Z,5153.00
2023-04-15T04:36:13.305Z,4686.00
2023-04-15T04:37:13.319Z,4349.00
2023-04-15T04:38:13.316Z,4118.00
2023-04-15T04:39:13.362Z,4023.00
2023-04-15T04:40:13.344Z,3548.00
2023-04-15T04:41:13.442Z,3099.00
2023-04-15T04:42:13.398Z,2945.00
2023-04-15T04:43:13.493Z,2908.00
2023-04-15T04:44:13.557Z,3032.00
2023-04-15T04:45:13.603Z,3095.00
2023-04-15T04:46:13.681Z,3562.00
2023-04-15T04:47:13.744Z,4012.00
2023-04-15T04:48:13.742Z,4478.00
2023-04-15T04:49:13.762Z,4939.00
2023-04-15T04:50:13.836Z,5236.00
2023-04-15T04:51:13.980Z,5392.00
2023-04-15T04:52:13.962Z,5522.00
2023-04-15T04:53:14.044Z,5716.00
2023-04-15T04:54:14.089Z,5823.00
2023-04-15T04:55:14.147Z,6019.00
2023-04-15T04:56:14.233Z,6025.00
2023-04-15T04:57:14.267Z,6007.00
2023-04-15T04:58:14.377Z,5935.00
2023-04-15T04:59:14.386Z,5894.00
2023-04-15T05:00:14.400Z,5902.00
2023-04-15T05:01:14.542Z,5893.00
2023-04-15T05:02:14.556Z,5856.00
2023-04-15T05:03:14.748Z,5927.00
2023-04-15T05:04:14.955Z,5974.00
2023-04-15T05:05:14.644Z,5994.00
2023-04-15T05:06:14.729Z,5996.00
2023-04-15T05:07:14.675Z,5957.00
2023-04-15T05:08:14.758Z,5928.00
2023-04-15T05:09:14.763Z,5876.00
2023-04-15T05:10:14.836Z,5839.00
2023-04-15T05:11:14.933Z,5834.00
2023-04-15T05:12:14.974Z,5782.00
2023-04-15T05:13:14.925Z,5744.00
2023-04-15T05:14:14.996Z,5687.00
2023-04-15T05:15:14.990Z,5687.00
2023-04-15T05:16:15.120Z,5420.00
2023-04-15T05:17:15.091Z,5336.00
2023-04-15T05:18:15.165Z,5370.00
2023-04-15T05:19:15.215Z,5606.00
2023-04-15T05:20:15.269Z,5789.00
2023-04-15T05:21:15.347Z,5900.00
2023-04-15T05:22:15.368Z,6022.00
2023-04-15T05:23:15.460Z,5816.00
2023-04-15T05:24:15.565Z,5811.00
2023-04-15T05:25:15.571Z,5877.00
2023-04-15T05:26:15.645Z,6033.00
2023-04-15T05:27:15.713Z,6062.00
2023-04-15T05:28:15.748Z,6179.00
2023-04-15T05:29:15.760Z,6059.00
2023-04-15T05:30:15.866Z,5627.00
2023-04-15T05:31:15.919Z,5379.00
2023-04-15T05:32:15.922Z,5158.00
2023-04-15T05:33:16.034Z,5170.00
2023-04-15T05:34:16.068Z,5300.00
2023-04-15T05:35:16.090Z,5568.00
2023-04-15T05:36:16.173Z,5766.00
2023-04-15T05:37:16.206Z,5749.00
2023-04-15T05:38:16.313Z,5735.00
2023-04-15T05:39:16.324Z,5779.00
2023-04-15T05:40:16.396Z,5802.00
2023-04-15T05:41:18.474Z,5707.00
2023-04-15T05:42:16.385Z,5622.00
2023-04-15T05:43:16.413Z,5580.00
2023-04-15T05:44:16.404Z,5538.00
2023-04-15T05:45:16.413Z,5523.00
2023-04-15T05:46:16.421Z,5476.00
2023-04-15T05:47:16.721Z,5423.00
2023-04-15T05:48:16.338Z,5317.00
2023-04-15T05:49:16.349Z,5043.00
2023-04-15T05:50:16.376Z,4619.00
2023-04-15T05:51:16.353Z,4360.00
2023-04-15T05:52:16.313Z,4055.00
2023-04-15T05:53:16.319Z,3565.00
2023-04-15T05:54:18.100Z,3263.00
2023-04-15T05:55:16.332Z,3028.00
2023-04-15T05:56:16.327Z,2936.00
2023-04-15T05:57:16.287Z,2904.00
2023-04-15T05:58:16.281Z,2790.00
2023-04-15T05:59:16.267Z,2572.00
2023-04-15T06:00:16.318Z,2675.00
2023-04-15T06:01:16.306Z,2612.00
2023-04-15T06:02:16.382Z,2404.00
2023-04-15T06:03:16.322Z,2427.00
2023-04-15T06:04:16.373Z,2059.00
2023-04-15T06:05:16.260Z,1956.00
2023-04-15T06:06:16.259Z,1871.00
2023-04-15T06:07:16.231Z,1845.00
2023-04-15T06:08:16.208Z,1844.00
2023-04-15T06:09:16.218Z,1872.00
2023-04-15T06:10:16.207Z,2216.00
2023-04-15T06:11:16.248Z,2157.00
2023-04-15T06:12:16.240Z,1911.00
2023-04-15T06:13:16.180Z,1526.00
2023-04-15T06:14:16.181Z,1338.00
2023-04-15T06:15:16.154Z,1251.00
2023-04-15T06:16:16.188Z,1429.00
2023-04-15T06:17:16.166Z,1468.00
2023-04-15T06:18:16.183Z,1609.00
2023-04-15T06:19:16.141Z,1534.00
2023-04-15T06:20:16.191Z,1252.00
2023-04-15T06:21:16.128Z,927.00
2023-04-15T06:22:16.143Z,911.00
2023-04-15T06:23:16.103Z,853.00
2023-04-15T06:24:16.153Z,812.00
2023-04-15T06:25:16.135Z,935.00
2023-04-15T06:26:16.176Z,1064.00
2023-04-15T06:27:16.137Z,620.00
2023-04-15T06:28:16.095Z,736.00
2023-04-15T06:29:16.088Z,1150.00
2023-04-15T06:30:16.130Z,1073.00
2023-04-15T06:31:16.154Z,920.00
2023-04-15T06:32:16.044Z,1043.00
2023-04-15T06:33:16.074Z,1320.00
2023-04-15T06:34:16.060Z,1145.00
2023-04-15T06:35:16.071Z,644.00
2023-04-15T06:36:16.068Z,493.00
2023-04-15T06:37:16.029Z,498.00
2023-04-15T06:38:16.049Z,450.00
2023-04-15T06:39:16.038Z,480.00
2023-04-15T06:40:16.033Z,400.00
2023-04-15T06:41:16.040Z,400.00
2023-04-15T06:42:15.983Z,400.00
2023-04-15T06:43:16.050Z,400.00
2023-04-15T06:44:16.006Z,400.00
2023-04-15T06:45:15.966Z,400.00
2023-04-15T06:46:16.036Z,562.00
2023-04-15T06:47:16.059Z,544.00
2023-04-15T06:48:15.974Z,2137.00
2023-04-15T06:49:15.967Z,2685.00
2023-04-15T06:50:15.994Z,1674.00
2023-04-15T06:51:15.946Z,911.00
2023-04-15T06:52:15.912Z,652.00
2023-04-15T06:53:15.922Z,593.00
2023-04-15T06:54:15.920Z,557.00
2023-04-15T06:55:15.933Z,432.00
2023-04-15T06:56:15.928Z,400.00
2023-04-15T06:57:15.903Z,400.00
2023-04-15T06:58:15.865Z,400.00
2023-04-15T06:59:15.876Z,511.00
2023-04-15T07:00:15.893Z,553.00
2023-04-15T07:01:15.929Z,493.00
2023-04-15T07:02:15.864Z,486.00
2023-04-15T07:03:15.914Z,512.00
2023-04-15T07:04:15.931Z,584.00
2023-04-15T07:05:15.861Z,722.00
2023-04-15T07:06:15.843Z,912.00
2023-04-15T07:07:15.856Z,748.00
2023-04-15T07:08:15.908Z,725.00
2023-04-15T07:09:15.918Z,641.00
2023-04-15T07:10:15.927Z,649.00
2023-04-15T07:11:16.013Z,808.00
2023-04-15T07:12:16.085Z,896.00
2023-04-15T07:13:16.027Z,924.00
2023-04-15T07:14:16.063Z,999.00
2023-04-15T07:15:16.049Z,1272.00
2023-04-15T07:16:16.156Z,1039.00
2023-04-15T07:17:16.109Z,785.00
2023-04-15T07:18:16.099Z,733.00
2023-04-15T07:19:16.116Z,616.00
2023-04-15T07:20:16.154Z,597.00
2023-04-15T07:21:16.131Z,551.00
2023-04-15T07:22:16.143Z,642.00
2023-04-15T07:23:16.147Z,845.00
2023-04-15T07:24:16.203Z,910.00
2023-04-15T07:25:16.176Z,660.00
2023-04-15T07:26:16.222Z,524.00
2023-04-15T07:27:16.264Z,551.00
2023-04-15T07:28:16.247Z,525.00
2023-04-15T07:29:16.237Z,572.00
2023-04-15T07:30:16.260Z,547.00
2023-04-15T07:31:16.370Z,500.00
2023-04-15T07:32:16.382Z,462.00
2023-04-15T07:33:16.429Z,475.00
2023-04-15T07:34:16.493Z,559.00
2023-04-15T07:35:16.485Z,582.00
2023-04-15T07:36:16.603Z,569.00
2023-04-15T07:37:16.604Z,512.00
2023-04-15T07:38:16.657Z,500.00
2023-04-15T07:39:16.741Z,533.00
2023-04-15T07:40:16.732Z,530.00
2023-04-15T07:41:16.806Z,512.00
2023-04-15T07:42:16.845Z,578.00
2023-04-15T07:43:16.861Z,519.00
2023-04-15T07:44:16.862Z,597.00
2023-04-15T07:45:16.930Z,709.00
2023-04-15T07:46:16.978Z,613.00
2023-04-15T07:47:16.971Z,636.00
2023-04-15T07:48:16.938Z,585.00
2023-04-15T07:49:17.011Z,490.00
2023-04-15T07:50:16.949Z,455.00
2023-04-15T07:51:17.013Z,500.00
2023-04-15T07:52:17.024Z,498.00
2023-04-15T07:53:17.091Z,590.00
2023-04-15T07:54:17.051Z,583.00
2023-04-15T07:55:17.043Z,591.00
2023-04-15T07:56:17.099Z,635.00
2023-04-15T07:57:17.115Z,660.00
2023-04-15T07:58:17.164Z,761.00
2023-04-15T07:59:17.115Z,1114.00
2023-04-15T08:00:17.187Z,880.00
2023-04-15T08:01:17.205Z,743.00
2023-04-15T08:02:17.397Z,985.00
2023-04-15T08:03:17.394Z,1475.00
2023-04-15T08:04:17.425Z,1747.00
2023-04-15T08:05:17.387Z,1961.00
2023-04-15T08:06:17.334Z,1956.00
2023-04-15T08:07:17.330Z,2041.00
2023-04-15T08:08:17.403Z,1749.00
2023-04-15T08:09:17.859Z,1466.00
2023-04-15T08:10:17.450Z,1382.00
2023-04-15T08:11:17.531Z,1307.00
2023-04-15T08:12:17.549Z,1196.00
2023-04-15T08:13:17.624Z,1179.00
2023-04-15T08:14:17.673Z,1410.00
2023-04-15T08:15:17.616Z,1462.00
2023-04-15T08:16:17.737Z,916.00
2023-04-15T08:17:17.805Z,846.00
2023-04-15T08:18:17.824Z,1015.00
2023-04-15T08:19:17.851Z,1258.00
2023-04-15T08:20:17.936Z,1481.00
2023-04-15T08:21:17.956Z,1165.00
2023-04-15T08:22:18.907Z,1241.00
2023-04-15T08:23:17.988Z,1427.00
2023-04-15T08:24:18.003Z,1292.00
2023-04-15T08:25:18.036Z,1198.00
2023-04-15T08:26:18.093Z,1156.00
2023-04-15T08:27:18.098Z,1401.00
2023-04-15T08:28:18.121Z,1533.00
2023-04-15T08:29:18.136Z,1511.00
2023-04-15T08:30:18.122Z,1651.00
2023-04-15T08:31:18.167Z,1803.00
2023-04-15T08:32:18.128Z,2053.00
2023-04-15T08:33:18.121Z,2468.00
2023-04-15T08:34:18.170Z,2316.00
2023-04-15T08:35:18.212Z,2071.00
2023-04-15T08:36:18.157Z,2203.00
2023-04-15T08:37:18.225Z,2337.00
2023-04-15T08:38:18.269Z,2466.00
2023-04-15T08:39:18.236Z,2366.00
2023-04-15T08:40:18.304Z,2287.00
2023-04-15T08:41:18.239Z,1917.00
2023-04-15T08:42:18.289Z,1743.00
2023-04-15T08:43:18.338Z,1677.00
2023-04-15T08:44:18.543Z,1727.00
2023-04-15T08:45:18.440Z,1784.00
2023-04-15T08:46:18.556Z,2383.00
2023-04-15T08:47:19.664Z,2441.00
2023-04-15T08:48:18.693Z,2177.00
2023-04-15T08:49:18.725Z,1738.00
2023-04-15T08:50:18.822Z,1495.00
2023-04-15T08:51:18.865Z,1573.00
2023-04-15T08:52:18.885Z,1483.00
2023-04-15T08:53:18.918Z,1246.00
2023-04-15T08:54:18.974Z,1202.00
2023-04-15T08:55:18.997Z,1109.00
2023-04-15T08:56:18.990Z,1355.00
2023-04-15T08:57:19.034Z,1259.00
2023-04-15T08:58:19.011Z,1375.00
2023-04-15T08:59:19.122Z,1474.00
2023-04-15T09:00:19.149Z,1297.00
2023-04-15T09:01:19.229Z,1292.00
2023-04-15T09:02:19.334Z,1388.00
2023-04-15T09:03:19.410Z,1372.00
2023-04-15T09:04:19.444Z,1696.00
2023-04-15T09:05:19.380Z,1295.00
2023-04-15T09:06:19.391Z,1287.00
2023-04-15T09:07:19.442Z,1203.00
2023-04-15T09:08:19.485Z,931.00
2023-04-15T09:09:19.577Z,1219.00
2023-04-15T09:10:19.491Z,1235.00
2023-04-15T09:11:20.100Z,1600.00
2023-04-15T09:12:19.485Z,1659.00
2023-04-15T09:13:19.499Z,1979.00
2023-04-15T09:14:19.466Z,2205.00
2023-04-15T09:15:19.601Z,2225.00
2023-04-15T09:16:19.616Z,2446.00
2023-04-15T09:17:19.627Z,2457.00
2023-04-15T09:18:19.636Z,2326.00
2023-04-15T09:19:19.695Z,2237.00
2023-04-15T09:20:19.688Z,2384.00
2023-04-15T09:21:19.762Z,2219.00
2023-04-15T09:22:19.794Z,2377.00
2023-04-15T09:23:19.787Z,2494.00
2023-04-15T09:24:19.789Z,2663.00
2023-04-15T09:25:19.856Z,2054.00
2023-04-15T09:26:19.839Z,1485.00
2023-04-15T09:27:19.879Z,1382.00
2023-04-15T09:28:19.986Z,1162.00
2023-04-15T09:29:19.989Z,928.00
2023-04-15T09:30:20.019Z,772.00
2023-04-15T09:31:20.112Z,729.00
2023-04-15T09:32:20.045Z,652.00
2023-04-15T09:33:20.031Z,717.00
2023-04-15T09:34:20.093Z,867.00
2023-04-15T09:35:20.148Z,1083.00
2023-04-15T09:36:20.188Z,1100.00
2023-04-15T09:37:31.663Z,1013.00
2023-04-15T09:38:21.171Z,1026.00
2023-04-15T09:39:20.209Z,1050.00
2023-04-15T09:40:20.216Z,1144.00
2023-04-15T09:41:20.185Z,1403.00
2023-04-15T09:42:20.200Z,1521.00
2023-04-15T09:43:20.185Z,1262.00
2023-04-15T09:44:20.148Z,1292.00
2023-04-15T09:45:20.149Z,971.00
2023-04-15T09:46:20.211Z,531.00
2023-04-15T09:47:20.212Z,578.00
2023-04-15T09:48:20.136Z,606.00
2023-04-15T09:49:20.178Z,643.00
2023-04-15T09:50:20.190Z,586.00
2023-04-15T09:51:20.220Z,717.00
2023-04-15T09:52:20.297Z,682.00
2023-04-15T09:53:20.296Z,490.00
2023-04-15T09:54:20.368Z,494.00
2023-04-15T09:55:20.381Z,693.00
2023-04-15T09:56:20.382Z,1442.00
2023-04-15T09:57:20.445Z,1796.00
2023-04-15T09:58:20.386Z,1453.00
2023-04-15T09:59:21.833Z,1223.00
2023-04-15T10:00:20.479Z,1473.00
2023-04-15T10:01:20.568Z,1145.00
2023-04-15T10:02:20.709Z,1131.00
2023-04-15T10:03:20.752Z,1189.00
2023-04-15T10:04:20.607Z,1282.00
2023-04-15T10:05:20.534Z,1499.00
2023-04-15T10:06:20.540Z,1799.00
2023-04-15T10:07:20.709Z,2064.00
2023-04-15T10:08:20.721Z,2441.00
2023-04-15T10:09:20.743Z,2605.00
2023-04-15T10:10:20.768Z,3009.00
2023-04-15T10:11:20.849Z,3122.00
2023-04-15T10:12:20.954Z,3162.00
2023-04-15T10:13:21.022Z,2885.00
2023-04-15T10:14:20.990Z,3095.00
2023-04-15T10:15:20.976Z,2832.00
2023-04-15T10:16:21.129Z,2636.00
2023-04-15T10:17:21.055Z,1954.00
2023-04-15T10:18:21.062Z,1720.00
2023-04-15T10:19:21.125Z,1561.00
2023-04-15T10:20:21.104Z,1495.00
2023-04-15T10:21:21.110Z,1130.00
2023-04-15T10:22:21.194Z,1017.00
2023-04-15T10:23:21.229Z,676.00
2023-04-15T10:24:21.225Z,562.00
2023-04-15T10:25:21.290Z,594.00
2023-04-15T10:26:21.415Z,610.00
2023-04-15T10:27:21.384Z,848.00
2023-04-15T10:28:21.367Z,924.00
2023-04-15T10:29:21.423Z,782.00
2023-04-15T10:30:21.434Z,719.00
2023-04-15T10:31:21.556Z,991.00
2023-04-15T10:32:21.600Z,639.00
2023-04-15T10:33:21.521Z,481.00
2023-04-15T10:34:21.557Z,536.00
2023-04-15T10:35:21.591Z,490.00
2023-04-15T10:36:21.624Z,507.00
2023-04-15T10:37:21.684Z,497.00
2023-04-15T10:38:21.737Z,516.00
2023-04-15T10:39:21.778Z,654.00
2023-04-15T10:40:21.764Z,806.00
2023-04-15T10:41:22.036Z,693.00
2023-04-15T10:42:21.874Z,915.00
2023-04-15T10:43:21.874Z,1246.00
2023-04-15T10:44:21.957Z,1360.00
2023-04-15T10:45:21.944Z,1372.00
2023-04-15T10:46:22.044Z,1601.00
2023-04-15T10:47:22.154Z,1519.00
2023-04-15T10:48:22.178Z,1638.00
2023-04-15T10:49:22.135Z,823.00
2023-04-15T10:50:22.133Z,951.00
2023-04-15T10:51:22.133Z,794.00
2023-04-15T10:52:22.286Z,917.00
2023-04-15T10:53:22.262Z,761.00
2023-04-15T10:54:22.319Z,910.00
2023-04-15T10:55:22.376Z,1362.00
2023-04-15T10:56:22.388Z,1193.00
2023-04-15T10:57:22.471Z,973.00
2023-04-15T10:58:22.490Z,650.00
2023-04-15T10:59:22.513Z,633.00
2023-04-15T11:00:22.532Z,550.00
2023-04-15T11:01:22.660Z,587.00
2023-04-15T11:02:22.824Z,566.00
2023-04-15T11:03:22.758Z,570.00
2023-04-15T11:04:22.790Z,760.00
2023-04-15T11:05:22.757Z,652.00
2023-04-15T11:06:22.763Z,823.00
2023-04-15T11:07:22.808Z,1025.00
2023-04-15T11:08:22.818Z,880.00
2023-04-15T11:09:22.848Z,1049.00
2023-04-15T11:10:22.849Z,865.00
2023-04-15T11:11:22.935Z,978.00
2023-04-15T11:12:22.900Z,816.00
2023-04-15T11:13:22.956Z,697.00
2023-04-15T11:14:23.235Z,421.00
2023-04-15T11:15:22.923Z,425.00
2023-04-15T11:16:23.030Z,500.00
2023-04-15T11:17:23.254Z,471.00
2023-04-15T11:18:23.010Z,521.00
2023-04-15T11:19:23.080Z,571.00
2023-04-15T11:20:23.171Z,744.00
2023-04-15T11:21:23.121Z,678.00
2023-04-15T11:22:23.184Z,466.00
2023-04-15T11:23:23.169Z,452.00
2023-04-15T11:24:23.184Z,449.00
2023-04-15T11:25:23.266Z,482.00
2023-04-15T11:26:23.273Z,500.00
2023-04-15T11:27:23.270Z,632.00
2023-04-15T11:28:23.312Z,791.00
2023-04-15T11:29:23.328Z,873.00
2023-04-15T11:30:23.336Z,965.00
2023-04-15T11:31:23.454Z,987.00
2023-04-15T11:32:23.514Z,1088.00
2023-04-15T11:33:23.491Z,1103.00
2023-04-15T11:34:23.545Z,1284.00
2023-04-15T11:35:23.592Z,1476.00
2023-04-15T11:36:23.697Z,1354.00
2023-04-15T11:37:23.641Z,1415.00
2023-04-15T11:38:23.660Z,1350.00
2023-04-15T11:39:23.601Z,1756.00
2023-04-15T11:40:23.635Z,1822.00
2023-04-15T11:41:23.710Z,1853.00
2023-04-15T11:42:23.669Z,1918.00
2023-04-15T11:43:23.628Z,2140.00
2023-04-15T11:44:23.657Z,2030.00
2023-04-15T11:45:23.648Z,2062.00
2023-04-15T11:46:23.813Z,1782.00
2023-04-15T11:47:23.847Z,1539.00
2023-04-15T11:48:23.760Z,1608.00
2023-04-15T11:49:23.780Z,1913.00
2023-04-15T11:50:23.790Z,2226.00
2023-04-15T11:51:23.819Z,2189.00
2023-04-15T11:52:23.851Z,2199.00
2023-04-15T11:53:23.901Z,2233.00
2023-04-15T11:54:23.925Z,2362.00
2023-04-15T11:55:23.979Z,2321.00
2023-04-15T11:56:24.017Z,2218.00
2023-04-15T11:57:24.033Z,2346.00
2023-04-15T11:58:23.995Z,2212.00
2023-04-15T11:59:28.144Z,1642.00
2023-04-15T12:00:25.031Z,1511.00
2023-04-15T12:01:24.021Z,1488.00
2023-04-15T12:02:24.097Z,1455.00
2023-04-15T12:03:24.142Z,1363.00
2023-04-15T12:04:25.459Z,1399.00
2023-04-15T12:05:24.190Z,1187.00
2023-04-15T12:06:23.957Z,1165.00
2023-04-15T12:07:23.981Z,1143.00
2023-04-15T12:08:23.940Z,773.00
2023-04-15T12:09:23.918Z,633.00
2023-04-15T12:10:23.935Z,645.00
2023-04-15T12:11:23.913Z,469.00